Time;durP1;ratioP1;P1;durP2;ratioP2;P2;SDS_P1;SDS_P2;PMS_P1;PMS_P2;Temp;Humidity;BMP_temperature;BMP_pressure;BME280_temperature;BME280_humidity;BME280_pressure;Samples;Min_cycle;Max_cycle;Signal;HPM_P1;HPM_P2
2022/07/09 00:00:18;;;;;;;3.80;3.10;;;;;;;;;;4974453;28;20184;-81
2022/07/09 00:02:45;;;;;;;5.80;3.20;;;;;;;;;;4972185;28;20219;-81
2022/07/09 00:05:13;;;;;;;7.07;3.27;;;;;;;;;;4970743;28;20731;-81
2022/07/09 00:07:39;;;;;;;8.63;3.17;;;;;;;;;;4980003;28;20179;-81
2022/07/09 00:10:05;;;;;;;6.10;3.53;;;;;;;;;;4975482;28;20169;-81
2022/07/09 00:12:32;;;;;;;4.80;2.97;;;;;;;;;;4977555;28;20196;-81
2022/07/09 00:14:58;;;;;;;5.47;3.07;;;;;;;;;;4976805;28;20603;-81
2022/07/09 00:17:25;;;;;;;6.37;3.07;;;;;;;;;;4977138;28;20188;-81
2022/07/09 00:19:52;;;;;;;3.57;2.43;;;;;;;;;;4976899;28;20196;-81
2022/07/09 00:22:18;;;;;;;4.43;2.50;;;;;;;;;;4976687;28;20207;-81
2022/07/09 00:24:44;;;;;;;3.03;2.33;;;;;;;;;;4975942;28;20200;-81
2022/07/09 00:27:10;;;;;;;2.60;2.40;;;;;;;;;;4974891;28;20192;-81
2022/07/09 00:29:37;;;;;;;5.17;2.70;;;;;;;;;;4975216;28;20271;-81
2022/07/09 00:32:03;;;;;;;3.93;2.90;;;;;;;;;;4974202;28;20176;-81
2022/07/09 00:34:29;;;;;;;3.90;2.63;;;;;;;;;;4972077;28;20184;-81
2022/07/09 00:36:56;;;;;;;4.70;3.03;;;;;;;;;;4973499;28;20184;-81
2022/07/09 00:39:22;;;;;;;4.70;3.00;;;;;;;;;;4978762;28;20192;-81
2022/07/09 00:41:48;;;;;;;4.70;2.90;;;;;;;;;;4974327;28;20267;-81
2022/07/09 00:44:14;;;;;;;3.23;2.93;;;;;;;;;;4974248;28;20211;-81
2022/07/09 00:46:40;;;;;;;3.17;2.80;;;;;;;;;;4974610;28;20177;-81
2022/07/09 00:49:06;;;;;;;3.17;2.80;;;;;;;;;;4969979;28;20248;-81
2022/07/09 00:51:33;;;;;;;4.63;3.10;;;;;;;;;;4974770;28;20176;-81
2022/07/09 00:54:00;;;;;;;5.00;3.00;;;;;;;;;;4969034;28;20263;-81
2022/07/09 00:56:28;;;;;;;5.70;3.50;;;;;;;;;;4974206;28;20589;-81
2022/07/09 00:58:54;;;;;;;6.40;3.43;;;;;;;;;;4958244;28;20188;-81
2022/07/09 01:01:20;;;;;;;3.90;3.07;;;;;;;;;;4973620;28;20177;-81
2022/07/09 01:03:46;;;;;;;4.77;3.10;;;;;;;;;;4965697;28;20688;-81
2022/07/09 01:06:15;;;;;;;5.43;2.90;;;;;;;;;;4978714;28;20542;-81
2022/07/09 01:08:41;;;;;;;4.23;2.97;;;;;;;;;;4974342;28;20193;-81
2022/07/09 01:11:07;;;;;;;3.37;3.07;;;;;;;;;;4973699;28;20188;-81
2022/07/09 01:13:33;;;;;;;3.37;2.90;;;;;;;;;;4972135;28;20212;-81
2022/07/09 01:16:00;;;;;;;4.70;2.73;;;;;;;;;;4971900;28;20181;-81
2022/07/09 01:18:26;;;;;;;3.10;2.80;;;;;;;;;;4972714;28;20631;-82
2022/07/09 01:20:52;;;;;;;3.40;2.80;;;;;;;;;;4973407;28;20272;-81
2022/07/09 01:23:18;;;;;;;4.03;3.00;;;;;;;;;;4972893;28;20274;-80
2022/07/09 01:25:45;;;;;;;5.67;3.00;;;;;;;;;;4968735;28;20205;-81
2022/07/09 01:28:11;;;;;;;4.70;3.27;;;;;;;;;;4968214;28;20205;-81
2022/07/09 01:30:38;;;;;;;5.40;3.40;;;;;;;;;;4973473;28;20211;-81
2022/07/09 01:33:04;;;;;;;4.53;3.10;;;;;;;;;;4975806;28;20212;-81
2022/07/09 01:35:31;;;;;;;5.80;3.20;;;;;;;;;;4972777;28;20585;-81
2022/07/09 01:37:57;;;;;;;5.13;4.53;;;;;;;;;;4955967;28;20188;-81
2022/07/09 01:40:24;;;;;;;6.70;4.10;;;;;;;;;;4973232;28;20173;-81
2022/07/09 01:42:50;;;;;;;5.00;4.17;;;;;;;;;;4972464;28;20220;-81
2022/07/09 01:45:16;;;;;;;6.10;3.90;;;;;;;;;;4972664;28;20686;-80
2022/07/09 01:47:43;;;;;;;6.03;3.70;;;;;;;;;;4970939;28;20597;-81
2022/07/09 01:50:09;;;;;;;3.73;2.90;;;;;;;;;;4972355;28;20195;-80
2022/07/09 01:52:36;;;;;;;4.40;3.20;;;;;;;;;;4961017;28;20200;-81
2022/07/09 01:55:02;;;;;;;3.60;2.90;;;;;;;;;;4969717;28;20192;-81
2022/07/09 01:57:28;;;;;;;6.50;3.70;;;;;;;;;;4971286;28;20181;-81
2022/07/09 01:59:54;;;;;;;5.27;3.30;;;;;;;;;;4973505;28;20319;-81
2022/07/09 02:02:20;;;;;;;5.20;3.60;;;;;;;;;;4973482;28;20231;-81
2022/07/09 02:04:47;;;;;;;3.73;3.30;;;;;;;;;;4972416;28;20802;-81
2022/07/09 02:07:14;;;;;;;4.23;3.43;;;;;;;;;;4956520;28;20388;-81
2022/07/09 02:09:41;;;;;;;4.10;3.40;;;;;;;;;;4971095;28;20187;-81
2022/07/09 02:12:07;;;;;;;4.00;3.07;;;;;;;;;;4979834;28;20188;-81
2022/07/09 02:14:33;;;;;;;3.97;3.20;;;;;;;;;;4958200;28;20537;-81
2022/07/09 02:16:59;;;;;;;3.47;3.10;;;;;;;;;;4974790;28;20176;-81
2022/07/09 02:19:26;;;;;;;6.77;3.20;;;;;;;;;;4972047;28;20222;-81
2022/07/09 02:21:52;;;;;;;3.73;3.03;;;;;;;;;;4972280;28;20185;-80
2022/07/09 02:24:18;;;;;;;5.87;2.80;;;;;;;;;;4973017;28;20201;-81
2022/07/09 02:26:44;;;;;;;3.70;2.90;;;;;;;;;;4973675;28;20176;-81
2022/07/09 02:29:10;;;;;;;5.07;3.23;;;;;;;;;;4972948;28;20239;-81
2022/07/09 02:31:36;;;;;;;4.40;3.40;;;;;;;;;;4972836;28;20176;-81
2022/07/09 02:34:03;;;;;;;6.00;3.53;;;;;;;;;;4969256;28;20816;-80
2022/07/09 02:36:29;;;;;;;5.67;3.80;;;;;;;;;;4977791;28;20267;-80
2022/07/09 02:38:55;;;;;;;3.97;3.47;;;;;;;;;;4978393;28;20181;-81
2022/07/09 02:41:21;;;;;;;4.50;3.43;;;;;;;;;;4971371;28;20603;-80
2022/07/09 02:43:48;;;;;;;4.90;3.70;;;;;;;;;;4981872;28;20676;-80
2022/07/09 02:46:15;;;;;;;4.73;3.13;;;;;;;;;;4977052;28;20176;-81
2022/07/09 02:48:41;;;;;;;4.23;3.47;;;;;;;;;;4976086;28;20180;-81
2022/07/09 02:51:07;;;;;;;5.60;3.30;;;;;;;;;;4977625;28;20181;-81
2022/07/09 02:53:33;;;;;;;3.93;3.10;;;;;;;;;;4975910;28;20210;-81
2022/07/09 02:56:00;;;;;;;5.10;3.30;;;;;;;;;;4976380;28;20195;-81
2022/07/09 02:58:26;;;;;;;5.57;3.50;;;;;;;;;;4975647;28;20186;-81
2022/07/09 03:00:52;;;;;;;5.30;3.47;;;;;;;;;;4960734;28;20747;-81
2022/07/09 03:03:18;;;;;;;6.83;3.77;;;;;;;;;;4975607;28;20216;-81
2022/07/09 03:05:44;;;;;;;3.80;3.40;;;;;;;;;;4982287;28;20207;-81
2022/07/09 03:08:11;;;;;;;4.70;3.43;;;;;;;;;;4964507;28;20184;-81
2022/07/09 03:10:37;;;;;;;4.20;3.40;;;;;;;;;;4964257;28;20193;-81
2022/07/09 03:13:03;;;;;;;4.57;3.40;;;;;;;;;;4974610;28;20212;-81
2022/07/09 03:15:29;;;;;;;5.90;3.70;;;;;;;;;;4975950;28;20715;-81
2022/07/09 03:17:56;;;;;;;3.50;3.20;;;;;;;;;;4958262;28;20204;-81
2022/07/09 03:20:22;;;;;;;5.03;3.67;;;;;;;;;;4978202;28;20220;-80
2022/07/09 03:22:48;;;;;;;5.87;4.00;;;;;;;;;;4977878;28;20227;-81
2022/07/09 03:25:14;;;;;;;5.50;4.70;;;;;;;;;;4966098;28;20200;-81
2022/07/09 03:27:40;;;;;;;7.90;6.47;;;;;;;;;;4975836;28;20687;-81
2022/07/09 03:30:07;;;;;;;9.33;6.10;;;;;;;;;;4977066;28;20193;-81
2022/07/09 03:32:33;;;;;;;6.87;6.07;;;;;;;;;;4975262;28;20216;-81
2022/07/09 03:34:59;;;;;;;6.87;5.13;;;;;;;;;;4976095;28;20529;-81
2022/07/09 03:37:26;;;;;;;8.27;5.37;;;;;;;;;;4975517;28;20187;-80
2022/07/09 03:39:52;;;;;;;5.37;4.87;;;;;;;;;;4973551;28;20188;-81
2022/07/09 03:42:18;;;;;;;7.07;4.57;;;;;;;;;;4975314;28;20200;-81
2022/07/09 03:44:44;;;;;;;5.67;4.40;;;;;;;;;;4975646;28;20196;-81
2022/07/09 03:47:10;;;;;;;4.73;3.70;;;;;;;;;;4959558;28;20546;-81
2022/07/09 03:49:36;;;;;;;6.53;4.93;;;;;;;;;;4976589;28;20237;-81
2022/07/09 03:52:03;;;;;;;6.03;4.53;;;;;;;;;;4966230;28;20281;-81
2022/07/09 03:54:29;;;;;;;5.93;5.07;;;;;;;;;;4959315;28;20177;-81
2022/07/09 03:56:55;;;;;;;8.47;6.10;;;;;;;;;;4974999;28;20216;-81
2022/07/09 03:59:21;;;;;;;6.33;5.73;;;;;;;;;;4976193;28;20192;-81
2022/07/09 04:01:47;;;;;;;7.57;5.83;;;;;;;;;;4958806;28;20295;-80
2022/07/09 04:04:14;;;;;;;9.20;6.47;;;;;;;;;;4963356;28;20255;-81
2022/07/09 04:06:40;;;;;;;7.73;5.57;;;;;;;;;;4976528;28;20673;-81
2022/07/09 04:09:06;;;;;;;7.07;6.07;;;;;;;;;;4958079;28;20679;-81
2022/07/09 04:11:33;;;;;;;6.90;6.20;;;;;;;;;;4962422;28;20228;-81
2022/07/09 04:13:59;;;;;;;6.97;5.97;;;;;;;;;;4977087;28;20576;-81
2022/07/09 04:16:26;;;;;;;8.27;5.97;;;;;;;;;;4976396;28;20568;-81
2022/07/09 04:18:52;;;;;;;7.03;6.10;;;;;;;;;;4975708;28;20196;-81
2022/07/09 04:21:21;;;;;;;6.27;5.70;;;;;;;;;;4975450;28;20216;-81
2022/07/09 04:23:47;;;;;;;6.13;5.03;;;;;;;;;;4975391;28;20217;-81
2022/07/09 04:26:13;;;;;;;6.87;5.57;;;;;;;;;;4977132;28;20168;-81
2022/07/09 04:28:39;;;;;;;5.53;5.03;;;;;;;;;;4973819;28;20543;-81
2022/07/09 04:31:05;;;;;;;5.87;5.00;;;;;;;;;;4974819;28;20184;-81
2022/07/09 04:33:32;;;;;;;5.70;5.10;;;;;;;;;;4973869;28;20224;-81
2022/07/09 04:35:58;;;;;;;5.43;4.93;;;;;;;;;;4949298;28;20200;-81
2022/07/09 04:38:24;;;;;;;6.57;4.50;;;;;;;;;;4973611;28;20192;-81
2022/07/09 04:40:51;;;;;;;5.80;4.97;;;;;;;;;;4965550;28;20180;-81
2022/07/09 04:43:17;;;;;;;5.53;4.47;;;;;;;;;;4968615;28;20200;-81
2022/07/09 04:45:43;;;;;;;7.77;5.00;;;;;;;;;;4978012;28;20312;-81
2022/07/09 04:48:10;;;;;;;4.20;3.80;;;;;;;;;;4962122;28;20645;-81
2022/07/09 04:50:36;;;;;;;6.67;4.03;;;;;;;;;;4964611;28;20549;-81
2022/07/09 04:53:02;;;;;;;4.83;4.33;;;;;;;;;;4957587;28;20291;-81
2022/07/09 04:55:28;;;;;;;5.17;4.27;;;;;;;;;;4975991;28;20181;-80
2022/07/09 04:57:54;;;;;;;4.80;3.93;;;;;;;;;;4977155;28;20187;-81
2022/07/09 05:00:21;;;;;;;5.37;4.17;;;;;;;;;;4973001;28;20189;-81
2022/07/09 05:02:47;;;;;;;6.73;4.60;;;;;;;;;;4975188;28;20307;-80
2022/07/09 05:05:13;;;;;;;4.97;4.23;;;;;;;;;;4976789;28;20235;-81
2022/07/09 05:07:41;;;;;;;6.33;4.50;;;;;;;;;;4991294;28;20174;-81
2022/07/09 05:10:08;;;;;;;5.70;4.17;;;;;;;;;;4978743;28;20184;-81
2022/07/09 05:12:34;;;;;;;5.03;4.13;;;;;;;;;;4985650;28;20199;-81
2022/07/09 05:15:00;;;;;;;7.20;4.23;;;;;;;;;;4980377;28;20196;-81
2022/07/09 05:17:26;;;;;;;6.73;4.20;;;;;;;;;;4977643;28;20181;-81
2022/07/09 05:19:52;;;;;;;4.27;3.87;;;;;;;;;;4980536;28;20193;-81
2022/07/09 05:22:18;;;;;;;4.57;3.47;;;;;;;;;;4975817;28;20216;-81
2022/07/09 05:24:45;;;;;;;4.60;3.73;;;;;;;;;;4975709;28;20216;-80
2022/07/09 05:27:11;;;;;;;5.83;3.37;;;;;;;;;;4975312;28;20274;-81
2022/07/09 05:29:37;;;;;;;4.57;2.90;;;;;;;;;;4960663;28;20196;-81
2022/07/09 05:32:04;;;;;;;4.37;2.60;;;;;;;;;;4976534;28;20187;-81
2022/07/09 05:34:30;;;;;;;2.93;2.60;;;;;;;;;;4981822;28;20180;-81
2022/07/09 05:36:56;;;;;;;2.83;2.30;;;;;;;;;;4974936;28;20188;-81
2022/07/09 05:39:22;;;;;;;4.67;2.50;;;;;;;;;;4956569;28;20727;-81
2022/07/09 05:41:49;;;;;;;4.20;2.43;;;;;;;;;;4975167;28;20223;-81
2022/07/09 05:44:15;;;;;;;2.40;2.20;;;;;;;;;;4973876;28;20295;-81
2022/07/09 05:46:41;;;;;;;3.77;2.33;;;;;;;;;;4974402;28;20173;-81
2022/07/09 05:49:08;;;;;;;4.23;2.33;;;;;;;;;;4974323;28;20176;-81
2022/07/09 05:51:34;;;;;;;3.30;2.27;;;;;;;;;;4979962;28;20187;-81
2022/07/09 05:54:00;;;;;;;4.67;2.27;;;;;;;;;;4974315;28;20212;-81
2022/07/09 05:56:26;;;;;;;4.40;2.47;;;;;;;;;;4980764;28;20184;-81
2022/07/09 05:58:52;;;;;;;3.30;2.53;;;;;;;;;;4972293;28;20184;-81
2022/07/09 06:01:19;;;;;;;3.13;2.70;;;;;;;;;;4971612;28;20520;-81
2022/07/09 06:03:46;;;;;;;3.57;2.70;;;;;;;;;;4956934;28;20739;-81
2022/07/09 06:06:13;;;;;;;3.20;2.80;;;;;;;;;;4974192;28;20184;-80
2022/07/09 06:08:39;;;;;;;3.70;2.87;;;;;;;;;;4973651;28;20231;-81
2022/07/09 06:11:06;;;;;;;4.57;2.53;;;;;;;;;;4973499;28;20202;-81
2022/07/09 06:13:32;;;;;;;3.43;2.47;;;;;;;;;;4972240;28;20266;-81
2022/07/09 06:15:58;;;;;;;5.67;2.83;;;;;;;;;;4976060;28;20598;-81
2022/07/09 06:18:24;;;;;;;3.57;2.83;;;;;;;;;;4964010;28;20199;-81
2022/07/09 06:20:51;;;;;;;2.97;2.67;;;;;;;;;;4972902;28;20282;-81
2022/07/09 06:23:17;;;;;;;2.50;2.30;;;;;;;;;;4971499;28;20200;-81
2022/07/09 06:25:43;;;;;;;3.87;2.47;;;;;;;;;;4973656;28;20615;-81
2022/07/09 06:28:10;;;;;;;4.60;2.50;;;;;;;;;;4974052;28;20184;-81
2022/07/09 06:30:36;;;;;;;2.40;2.20;;;;;;;;;;4971803;28;20204;-81
2022/07/09 06:33:03;;;;;;;4.63;2.43;;;;;;;;;;4965558;28;20215;-81
2022/07/09 06:35:30;;;;;;;6.47;3.00;;;;;;;;;;4964206;28;20705;-81
2022/07/09 06:37:57;;;;;;;4.40;2.90;;;;;;;;;;4975102;28;20188;-81
2022/07/09 06:40:23;;;;;;;5.00;3.20;;;;;;;;;;4976208;28;20243;-81
2022/07/09 06:42:49;;;;;;;4.60;3.07;;;;;;;;;;4968059;28;20871;-81
2022/07/09 06:45:22;;;;;;;3.63;2.90;;;;;;;;;;4975252;28;20768;-81
2022/07/09 06:47:48;;;;;;;5.07;3.27;;;;;;;;;;4934450;28;20185;-83
2022/07/09 06:50:15;;;;;;;7.43;3.27;;;;;;;;;;4981392;28;20188;-80
2022/07/09 06:52:41;;;;;;;3.00;2.60;;;;;;;;;;4970413;28;20203;-81
2022/07/09 06:55:07;;;;;;;3.37;2.80;;;;;;;;;;4972843;28;20273;-81
2022/07/09 06:57:34;;;;;;;4.40;2.97;;;;;;;;;;4972709;28;20914;-81
2022/07/09 07:00:01;;;;;;;4.70;3.07;;;;;;;;;;4966611;28;20188;-81
2022/07/09 07:02:27;;;;;;;4.97;2.77;;;;;;;;;;4964921;28;20208;-81
2022/07/09 07:04:53;;;;;;;3.20;2.90;;;;;;;;;;4973033;28;20298;-81
2022/07/09 07:07:20;;;;;;;5.30;3.63;;;;;;;;;;4971554;28;20177;-81
2022/07/09 07:09:46;;;;;;;4.47;3.10;;;;;;;;;;4963757;28;20209;-81
2022/07/09 07:12:12;;;;;;;4.67;3.80;;;;;;;;;;4968693;28;20197;-81
2022/07/09 07:14:38;;;;;;;4.60;3.53;;;;;;;;;;4973341;28;20219;-81
2022/07/09 07:17:05;;;;;;;4.17;3.20;;;;;;;;;;4973619;28;20183;-81
2022/07/09 07:19:31;;;;;;;5.10;3.10;;;;;;;;;;4973184;28;20658;-81
2022/07/09 07:21:57;;;;;;;4.03;2.77;;;;;;;;;;4973671;28;20185;-81
2022/07/09 07:24:23;;;;;;;5.43;3.53;;;;;;;;;;4979861;28;20211;-81
2022/07/09 07:26:49;;;;;;;4.50;3.30;;;;;;;;;;4979059;28;20189;-81
2022/07/09 07:29:16;;;;;;;4.67;3.23;;;;;;;;;;4978145;28;20272;-81
2022/07/09 07:31:42;;;;;;;4.23;3.57;;;;;;;;;;4977616;28;20203;-81
2022/07/09 07:34:08;;;;;;;4.27;3.20;;;;;;;;;;4975751;28;20263;-81
2022/07/09 07:36:34;;;;;;;4.97;3.30;;;;;;;;;;4976740;28;20224;-81
2022/07/09 07:39:00;;;;;;;4.10;2.90;;;;;;;;;;4976586;28;20269;-81
2022/07/09 07:41:26;;;;;;;4.23;3.30;;;;;;;;;;4974469;28;20177;-81
2022/07/09 07:43:53;;;;;;;7.43;4.07;;;;;;;;;;4973273;28;22018;-81
2022/07/09 07:46:19;;;;;;;4.60;3.17;;;;;;;;;;4981466;28;20184;-81
2022/07/09 07:48:46;;;;;;;4.53;3.30;;;;;;;;;;4975789;28;20724;-82
2022/07/09 07:51:12;;;;;;;8.30;3.17;;;;;;;;;;4956591;28;20251;-79
2022/07/09 07:53:38;;;;;;;4.43;3.27;;;;;;;;;;4974930;28;20640;-82
2022/07/09 07:56:05;;;;;;;7.17;3.47;;;;;;;;;;4975197;28;20189;-75
2022/07/09 07:58:31;;;;;;;4.47;3.40;;;;;;;;;;4974982;28;20187;-81
2022/07/09 08:00:57;;;;;;;4.73;3.90;;;;;;;;;;4972140;28;20191;-82
2022/07/09 08:03:24;;;;;;;5.03;3.50;;;;;;;;;;4973724;28;20225;-78
2022/07/09 08:05:50;;;;;;;4.80;3.30;;;;;;;;;;4974038;28;20204;-79
2022/07/09 08:08:18;;;;;;;5.27;3.67;;;;;;;;;;4974559;28;20193;-80
2022/07/09 08:10:45;;;;;;;7.17;3.97;;;;;;;;;;4974516;28;20192;-82
2022/07/09 08:13:12;;;;;;;5.57;4.20;;;;;;;;;;4974550;28;20204;-79
2022/07/09 08:15:38;;;;;;;4.77;3.57;;;;;;;;;;4953445;29;20197;-82
2022/07/09 08:18:05;;;;;;;5.67;3.40;;;;;;;;;;4972056;28;20840;-79
2022/07/09 08:20:32;;;;;;;5.03;3.37;;;;;;;;;;4973629;28;20188;-80
2022/07/09 08:22:58;;;;;;;4.77;3.60;;;;;;;;;;4973405;28;20808;-80
2022/07/09 08:25:25;;;;;;;5.00;3.50;;;;;;;;;;4974615;28;20284;-80
2022/07/09 08:27:51;;;;;;;6.67;3.43;;;;;;;;;;4963337;28;20211;-80
2022/07/09 08:30:17;;;;;;;7.00;3.37;;;;;;;;;;4972801;28;20189;-80
2022/07/09 08:32:43;;;;;;;4.50;3.47;;;;;;;;;;4957757;28;20204;-80
2022/07/09 08:35:09;;;;;;;5.37;3.27;;;;;;;;;;4973717;28;20208;-80
2022/07/09 08:37:35;;;;;;;5.53;3.23;;;;;;;;;;4974058;28;20188;-81
2022/07/09 08:40:05;;;;;;;5.90;3.60;;;;;;;;;;4948929;28;20217;-80
2022/07/09 08:42:32;;;;;;;6.43;3.20;;;;;;;;;;4973640;28;20416;-80
2022/07/09 08:44:59;;;;;;;4.47;2.93;;;;;;;;;;4973013;28;20197;-80
2022/07/09 08:47:25;;;;;;;5.77;3.17;;;;;;;;;;4970493;28;20176;-81
2022/07/09 08:49:55;;;;;;;6.30;3.90;;;;;;;;;;4973078;28;20192;-81
2022/07/09 08:52:22;;;;;;;5.80;3.27;;;;;;;;;;4985788;28;20695;-81
2022/07/09 08:54:49;;;;;;;4.57;3.40;;;;;;;;;;4969737;28;20181;-80
2022/07/09 08:57:15;;;;;;;7.00;4.23;;;;;;;;;;4972869;28;20181;-80
2022/07/09 08:59:41;;;;;;;5.97;4.20;;;;;;;;;;4970899;28;20243;-82
2022/07/09 09:02:13;;;;;;;5.77;3.50;;;;;;;;;;4973019;28;20660;-80
2022/07/09 09:04:39;;;;;;;5.47;3.60;;;;;;;;;;4979846;28;20205;-81
2022/07/09 09:07:35;;;;;;;4.03;2.80;;;;;;;;;;4971459;28;20181;-80
2022/07/09 09:10:01;;;;;;;4.60;3.00;;;;;;;;;;4954090;28;20691;-79
2022/07/09 09:12:28;;;;;;;6.13;3.03;;;;;;;;;;4971417;28;20233;-80
2022/07/09 09:14:54;;;;;;;4.63;3.13;;;;;;;;;;4969609;28;20189;-80
2022/07/09 09:17:21;;;;;;;4.50;2.90;;;;;;;;;;4971043;28;20220;-80
2022/07/09 09:19:47;;;;;;;4.30;2.90;;;;;;;;;;4971472;28;20184;-79
2022/07/09 09:22:17;;;;;;;5.13;3.23;;;;;;;;;;4972879;28;20200;-80
2022/07/09 09:24:43;;;;;;;6.27;3.20;;;;;;;;;;4970475;28;20208;-80
2022/07/09 09:27:09;;;;;;;5.57;3.23;;;;;;;;;;4972746;28;20547;-80
2022/07/09 09:29:39;;;;;;;3.70;3.20;;;;;;;;;;4958924;28;20227;-80
2022/07/09 09:32:12;;;;;;;6.53;3.13;;;;;;;;;;4973891;28;20196;-80
2022/07/09 09:34:41;;;;;;;4.40;3.47;;;;;;;;;;4972657;28;20195;-80
2022/07/09 09:37:11;;;;;;;4.33;2.80;;;;;;;;;;4972193;28;20199;-80
2022/07/09 09:39:37;;;;;;;3.80;2.80;;;;;;;;;;4973729;28;20208;-80
2022/07/09 09:42:03;;;;;;;3.87;2.50;;;;;;;;;;4973407;28;20193;-80
2022/07/09 09:44:36;;;;;;;4.03;2.40;;;;;;;;;;4977887;28;20208;-80
2022/07/09 09:47:02;;;;;;;4.07;2.53;;;;;;;;;;4977918;28;20199;-79
2022/07/09 09:49:28;;;;;;;3.80;2.47;;;;;;;;;;4975506;28;20185;-79
2022/07/09 09:51:54;;;;;;;5.37;2.97;;;;;;;;;;4971147;28;20196;-80
2022/07/09 09:54:22;;;;;;;4.37;2.80;;;;;;;;;;4973374;28;21005;-79
2022/07/09 09:56:48;;;;;;;4.53;2.60;;;;;;;;;;4971608;28;20210;-80
2022/07/09 09:59:15;;;;;;;5.03;2.40;;;;;;;;;;4973100;28;20192;-80
2022/07/09 10:01:42;;;;;;;2.83;2.47;;;;;;;;;;4958032;28;20566;-80
2022/07/09 10:04:09;;;;;;;4.57;2.37;;;;;;;;;;4971818;28;20328;-80
2022/07/09 10:06:35;;;;;;;4.93;2.77;;;;;;;;;;4970796;28;20181;-80
2022/07/09 10:09:03;;;;;;;5.67;2.40;;;;;;;;;;4971370;28;20658;-81
2022/07/09 10:11:48;;;;;;;2.73;2.20;;;;;;;;;;4954822;28;20683;-80
2022/07/09 10:14:17;;;;;;;3.30;2.60;;;;;;;;;;4970093;28;20200;-80
2022/07/09 10:16:43;;;;;;;4.33;2.70;;;;;;;;;;4973005;28;20180;-80
2022/07/09 10:19:10;;;;;;;4.23;2.60;;;;;;;;;;4972424;28;20212;-80
2022/07/09 10:21:37;;;;;;;3.80;2.50;;;;;;;;;;4981710;28;20193;-79
2022/07/09 10:24:05;;;;;;;2.90;2.33;;;;;;;;;;4962290;28;20303;-80
2022/07/09 10:26:37;;;;;;;3.43;2.23;;;;;;;;;;4977904;28;20687;-79
2022/07/09 10:29:03;;;;;;;5.40;2.53;;;;;;;;;;4985814;28;20558;-80
2022/07/09 10:31:31;;;;;;;3.23;2.37;;;;;;;;;;4968521;28;20244;-81
2022/07/09 10:34:08;;;;;;;4.00;2.37;;;;;;;;;;4973621;28;20297;-80
2022/07/09 10:36:34;;;;;;;4.33;2.13;;;;;;;;;;4972555;28;20677;-80
2022/07/09 10:39:00;;;;;;;2.93;2.10;;;;;;;;;;4967710;28;20188;-80
2022/07/09 10:41:26;;;;;;;3.57;2.30;;;;;;;;;;4971365;28;20182;-82
2022/07/09 10:43:53;;;;;;;4.33;2.50;;;;;;;;;;4973718;28;20243;-79
2022/07/09 10:46:19;;;;;;;4.07;2.10;;;;;;;;;;4971510;28;20684;-80
2022/07/09 10:48:46;;;;;;;3.93;2.50;;;;;;;;;;4969906;28;20577;-79
2022/07/09 10:51:17;;;;;;;5.43;2.30;;;;;;;;;;4970541;28;20189;-79
2022/07/09 10:53:44;;;;;;;3.77;2.33;;;;;;;;;;4972347;28;20196;-79
2022/07/09 10:56:10;;;;;;;3.07;2.27;;;;;;;;;;4977848;28;20219;-79
2022/07/09 10:58:36;;;;;;;3.30;2.00;;;;;;;;;;4976062;28;20200;-79
2022/07/09 11:01:04;;;;;;;4.03;2.10;;;;;;;;;;4977699;28;20195;-80
2022/07/09 11:03:31;;;;;;;4.03;2.30;;;;;;;;;;4978642;28;20259;-80
2022/07/09 11:05:58;;;;;;;3.17;2.20;;;;;;;;;;4978011;28;20284;-80
2022/07/09 11:08:24;;;;;;;3.03;2.13;;;;;;;;;;4978375;28;20187;-80
2022/07/09 11:10:51;;;;;;;4.53;2.57;;;;;;;;;;4976637;28;20196;-80
2022/07/09 11:13:17;;;;;;;4.20;2.60;;;;;;;;;;4969119;28;20200;-80
2022/07/09 11:15:43;;;;;;;3.57;2.10;;;;;;;;;;4976223;28;20188;-80
2022/07/09 11:18:11;;;;;;;4.53;2.00;;;;;;;;;;4976419;28;20188;-80
2022/07/09 11:20:38;;;;;;;3.97;2.40;;;;;;;;;;4960427;28;20203;-80
2022/07/09 11:23:04;;;;;;;3.70;2.40;;;;;;;;;;4958071;28;20561;-80
2022/07/09 11:25:30;;;;;;;4.60;2.10;;;;;;;;;;4974815;28;20205;-80
2022/07/09 11:27:57;;;;;;;3.20;1.90;;;;;;;;;;4961953;28;20532;-80
2022/07/09 11:30:24;;;;;;;2.30;2.10;;;;;;;;;;4957317;28;20196;-80
2022/07/09 11:32:51;;;;;;;4.23;2.10;;;;;;;;;;4974714;28;20761;-80
2022/07/09 11:35:28;;;;;;;3.97;2.20;;;;;;;;;;4975687;28;20543;-80
2022/07/09 11:37:54;;;;;;;5.73;2.27;;;;;;;;;;4979393;28;20693;-79
2022/07/09 11:40:21;;;;;;;3.13;2.20;;;;;;;;;;4973921;28;20779;-82
2022/07/09 11:42:49;;;;;;;3.00;2.00;;;;;;;;;;4963032;28;20208;-82
2022/07/09 11:45:15;;;;;;;3.70;2.30;;;;;;;;;;4956793;28;20203;-82
2022/07/09 11:47:41;;;;;;;3.80;1.93;;;;;;;;;;4954630;28;20173;-82
2022/07/09 11:50:10;;;;;;;4.50;2.20;;;;;;;;;;4974437;28;20173;-82
2022/07/09 11:52:36;;;;;;;3.33;2.03;;;;;;;;;;4972898;28;20311;-82
2022/07/09 11:55:06;;;;;;;4.77;2.13;;;;;;;;;;4980082;28;20188;-82
2022/07/09 11:57:34;;;;;;;6.37;2.57;;;;;;;;;;4975726;28;20186;-82
2022/07/09 12:00:01;;;;;;;4.53;1.97;;;;;;;;;;4984074;28;20613;-82
2022/07/09 12:02:32;;;;;;;3.30;2.20;;;;;;;;;;4981952;28;20208;-82
2022/07/09 12:04:58;;;;;;;3.27;2.23;;;;;;;;;;4965194;28;20215;-82
2022/07/09 12:07:25;;;;;;;4.63;2.20;;;;;;;;;;4984545;28;20183;-83
2022/07/09 12:09:58;;;;;;;3.23;2.00;;;;;;;;;;4974401;28;20656;-83
2022/07/09 12:12:25;;;;;;;3.53;2.07;;;;;;;;;;4987870;28;20212;-84
2022/07/09 12:14:51;;;;;;;3.33;2.30;;;;;;;;;;4989404;28;20275;-83
2022/07/09 12:17:23;;;;;;;3.40;2.10;;;;;;;;;;4988676;28;20193;-84
2022/07/09 12:19:49;;;;;;;3.33;2.00;;;;;;;;;;4942936;28;20193;-85
2022/07/09 12:22:15;;;;;;;3.53;1.83;;;;;;;;;;4963816;28;20204;-81
2022/07/09 12:24:42;;;;;;;3.17;1.87;;;;;;;;;;4947086;28;20204;-81
2022/07/09 12:27:09;;;;;;;2.03;1.77;;;;;;;;;;4980875;28;20259;-81
2022/07/09 12:29:36;;;;;;;4.47;1.47;;;;;;;;;;4955851;28;20193;-80
2022/07/09 12:32:02;;;;;;;2.13;1.70;;;;;;;;;;4975791;28;20186;-79
2022/07/09 12:34:28;;;;;;;3.20;1.70;;;;;;;;;;4969748;28;20188;-82
2022/07/09 12:36:55;;;;;;;3.73;1.87;;;;;;;;;;4983202;28;20180;-84
2022/07/09 12:39:21;;;;;;;2.23;1.90;;;;;;;;;;4983184;28;20266;-83
2022/07/09 12:41:47;;;;;;;2.37;1.73;;;;;;;;;;4958745;28;20189;-81
2022/07/09 12:44:14;;;;;;;2.73;1.70;;;;;;;;;;4977589;28;20234;-82
2022/07/09 12:46:41;;;;;;;4.07;1.87;;;;;;;;;;4979477;28;20174;-83
2022/07/09 12:49:08;;;;;;;1.83;1.50;;;;;;;;;;4983841;28;20177;-81
2022/07/09 12:51:35;;;;;;;1.63;1.40;;;;;;;;;;4966393;28;20200;-85
2022/07/09 12:54:01;;;;;;;1.70;1.50;;;;;;;;;;4974400;28;20208;-83
2022/07/09 12:56:27;;;;;;;1.93;1.40;;;;;;;;;;4947162;28;20183;-84
2022/07/09 12:58:54;;;;;;;1.47;1.37;;;;;;;;;;4968308;28;20240;-84
2022/07/09 13:01:20;;;;;;;2.10;1.40;;;;;;;;;;4976602;28;20187;-83
2022/07/09 13:03:46;;;;;;;1.77;1.20;;;;;;;;;;4993733;28;20474;-83
2022/07/09 13:06:31;;;;;;;1.80;1.30;;;;;;;;;;4971524;28;20217;-84
2022/07/09 13:08:58;;;;;;;2.47;1.07;;;;;;;;;;4983584;28;20184;-84
2022/07/09 13:11:24;;;;;;;1.20;1.10;;;;;;;;;;4988719;28;20207;-84
2022/07/09 13:13:50;;;;;;;1.30;1.20;;;;;;;;;;4965053;28;20200;-85
2022/07/09 13:16:17;;;;;;;1.23;1.13;;;;;;;;;;4975841;28;20212;-85
2022/07/09 13:18:43;;;;;;;2.33;1.40;;;;;;;;;;4997366;28;20192;-85
2022/07/09 13:21:09;;;;;;;1.40;1.30;;;;;;;;;;4960100;28;20270;-83
2022/07/09 13:23:36;;;;;;;1.40;1.30;;;;;;;;;;4979810;28;20208;-76
2022/07/09 13:26:03;;;;;;;1.80;1.20;;;;;;;;;;4977148;28;20258;-79
2022/07/09 13:28:29;;;;;;;2.10;1.40;;;;;;;;;;4972470;28;20184;-82
2022/07/09 13:30:55;;;;;;;2.33;1.20;;;;;;;;;;4972639;28;20204;-84
2022/07/09 13:33:22;;;;;;;3.07;1.23;;;;;;;;;;4974043;28;20974;-82
2022/07/09 13:35:48;;;;;;;1.73;1.37;;;;;;;;;;4975127;28;20186;-83
2022/07/09 13:38:14;;;;;;;1.10;1.10;;;;;;;;;;4977184;28;20193;-82
2022/07/09 13:40:41;;;;;;;2.27;1.27;;;;;;;;;;4971991;28;20215;-83
2022/07/09 13:43:08;;;;;;;3.00;1.20;;;;;;;;;;4974705;28;20269;-83
2022/07/09 13:45:34;;;;;;;1.47;1.30;;;;;;;;;;4973347;28;20226;-83
2022/07/09 13:48:00;;;;;;;1.40;1.20;;;;;;;;;;4978440;28;20218;-83
2022/07/09 13:50:27;;;;;;;1.30;1.20;;;;;;;;;;4962815;28;20209;-82
2022/07/09 13:52:53;;;;;;;1.43;1.33;;;;;;;;;;4975547;28;20215;-82
2022/07/09 13:55:19;;;;;;;1.40;1.10;;;;;;;;;;4973868;28;20263;-82
2022/07/09 13:57:45;;;;;;;1.57;1.30;;;;;;;;;;4973584;28;20193;-83
2022/07/09 14:00:12;;;;;;;1.97;1.30;;;;;;;;;;4975129;28;20275;-83
2022/07/09 14:02:38;;;;;;;1.63;1.10;;;;;;;;;;4974533;28;20225;-82
2022/07/09 14:05:05;;;;;;;1.40;1.30;;;;;;;;;;4945008;28;20306;-82
2022/07/09 14:07:31;;;;;;;2.07;1.40;;;;;;;;;;4979402;28;20538;-82
2022/07/09 14:09:58;;;;;;;1.47;1.10;;;;;;;;;;4959257;28;20176;-82
2022/07/09 14:12:24;;;;;;;1.40;1.30;;;;;;;;;;4960884;28;20268;-82
2022/07/09 14:14:51;;;;;;;1.50;1.40;;;;;;;;;;4979588;28;20928;-83
2022/07/09 14:17:17;;;;;;;1.30;1.20;;;;;;;;;;4962483;28;20185;-82
2022/07/09 14:19:43;;;;;;;1.37;1.27;;;;;;;;;;4960688;28;20845;-84
2022/07/09 14:22:09;;;;;;;2.23;1.40;;;;;;;;;;4978288;28;22092;-82
2022/07/09 14:24:35;;;;;;;2.17;1.40;;;;;;;;;;4962278;28;20250;-81
2022/07/09 14:27:02;;;;;;;1.30;1.20;;;;;;;;;;4958446;28;20190;-82
2022/07/09 14:29:29;;;;;;;1.40;1.30;;;;;;;;;;4961804;28;20675;-82
2022/07/09 14:31:55;;;;;;;2.43;1.27;;;;;;;;;;4972110;28;20310;-82
2022/07/09 14:34:21;;;;;;;2.13;1.30;;;;;;;;;;4957167;28;20191;-82
2022/07/09 14:36:51;;;;;;;1.60;1.50;;;;;;;;;;4973325;28;21549;-82
2022/07/09 14:39:18;;;;;;;4.40;1.40;;;;;;;;;;4973042;28;20291;-82